• Join FlightAware (Why Join?)
  • Login
  • US Flag 
05:29PM EDT


 

Airport Tracker/Info


-or-


 

Live Flight TrackerFlight Track Log ✈ N5465S ✈ 07-Jul-2013 ✈ KAVL - KRYY

Flight Track Log - Related Links

Times and Time Zones

All times are in EDT time to prevent confusion due to time zone crossing. See the N5465S flight status page for this flight to view local times or setup timezone preferences in your user account.

Time Position Orientation Groundspeed Altitude Reporting Facility
EDT Latitude Longitude Course Direction KTS MPH feet Rate Location/Type
07:24PM 35.2546 -82.5676 171° South  Level FlightAware Approximate
07:25PM 35.2232 -82.5577 165° South  Level FlightAware Approximate
07:26PM 35.1948 -82.5579 231° Southwest  Level FlightAware Approximate
07:27PM 35.1743 -82.5886 231° Southwest  Level FlightAware Approximate
07:28PM 35.1539 -82.6193 231° Southwest  Level FlightAware Approximate
07:29PM 35.1334 -82.6500 231° Southwest  Level FlightAware Approximate
07:29PM 35.3172 -82.4097 229° Southwest 146 168 7,900  Level Atlanta Center
07:30PM 35.1129 -82.6807 231° Southwest  Level FlightAware Approximate
07:30PM 35.2925 -82.4356 220° Southwest 131 151 8,000  Level Atlanta Center
07:31PM 35.0925 -82.7114 231° Southwest  Level FlightAware Approximate
07:31PM 35.2681 -82.4692 228° Southwest 131 151 7,900  Level Atlanta Center
07:32PM 35.0720 -82.7421 231° Southwest  Level FlightAware Approximate
07:32PM 35.2475 -82.5000 231° Southwest 131 151 8,000  Level Atlanta Center
07:33PM 35.0509 -82.7721 229° Southwest  Level FlightAware Approximate
07:33PM 35.2250 -82.5336 231° Southwest 131 151 7,900  Level Atlanta Center
07:34PM 35.0296 -82.8019 229° Southwest  Level FlightAware Approximate
07:34PM 35.2025 -82.5669 230° Southwest 126 145 7,900  Level Atlanta Center
07:35PM 35.1797 -82.5981 228° Southwest 126 145 7,900  Level Atlanta Center
07:36PM 35.1572 -82.6264 226° Southwest 120 138 8,000  Climbing Atlanta Center
07:37PM 35.1325 -82.6597 228° Southwest 126 145 7,900  Descending Atlanta Center
07:38PM 35.1100 -82.6906 228° Southwest 126 145 8,000  Climbing Atlanta Center
07:39PM 35.0853 -82.7264 230° Southwest 132 152 7,900 -60 Descending Atlanta Center
07:40PM 35.0647 -82.7597 233° Southwest 132 152 7,900  Level Atlanta Center
07:41PM 35.0422 -82.7956 233° Southwest 137 158 7,900  Level Atlanta Center
07:42PM 35.0194 -82.8264 228° Southwest 131 151 8,000  Climbing Atlanta Center
07:43PM 34.9928 -82.8675 232° Southwest 137 158 8,000 -60 Level Atlanta Center
07:44PM 34.9703 -82.9006 230° Southwest 131 151 7,900 -60 Descending Atlanta Center
07:45PM 34.9475 -82.9389 234° Southwest 136 157 7,900  Level Atlanta Center
07:46PM 34.9250 -82.9697 228° Southwest 131 151 8,000  Climbing Atlanta Center
07:47PM 34.8981 -83.0031 225° Southwest 136 157 7,900 -60 Descending Atlanta Center
07:48PM 34.8733 -83.0361 228° Southwest 136 157 7,900 -300 Level Atlanta Center
07:49PM 34.8486 -83.0744 232° Southwest 136 157 7,300 -600 Descending Atlanta Center
07:50PM 34.8239 -83.1128 232° Southwest 141 162 6,800 -540 Descending Atlanta Center
07:51PM 34.7950 -83.1586 233° Southwest 153 176 6,300 -480 Descending Atlanta Center
07:52PM 34.7700 -83.1892 225° Southwest 153 176 5,900 -240 Descending Atlanta Center
07:53PM 34.7433 -83.2247 228° Southwest 148 170 5,900  Level Atlanta Center
07:54PM 34.7206 -83.2603 232° Southwest 148 170 5,900  Level Atlanta Center
07:55PM 34.6978 -83.2961 232° Southwest 140 161 5,900  Level Atlanta Center
07:56PM 34.6728 -83.3214 220° Southwest 128 147 5,900  Level Atlanta Center
07:57PM 34.6417 -83.3544 221° Southwest 133 153 5,900  Level Atlanta Center
07:58PM 34.6169 -83.3825 223° Southwest 133 153 6,000  Climbing Atlanta Center
07:59PM 34.5900 -83.4131 223° Southwest 138 159 5,900 -60 Descending Atlanta Center
08:00PM 34.5608 -83.4436 221° Southwest 138 159 5,900  Level Atlanta Center
08:01PM 34.5358 -83.4714 222° Southwest 138 159 5,900  Level Atlanta Center
08:02PM 34.5089 -83.4994 221° Southwest 138 159 5,900  Level Atlanta Center
08:03PM 34.4800 -83.5322 223° Southwest 138 159 5,900  Level Atlanta Center
08:04PM 34.4528 -83.5628 223° Southwest 132 152 5,900  Level Atlanta Center
08:05PM 34.4236 -83.5931 221° Southwest 132 152 6,000  Climbing Atlanta Center
08:06PM 34.3967 -83.6233 223° Southwest 132 152 5,900 -60 Descending Atlanta Center
08:07PM 34.3656 -83.6511 216° Southwest 139 160 5,900  Level Atlanta Center
08:08PM 34.3425 -83.6789 225° Southwest 139 160 5,900  Level Atlanta Center
08:09PM 34.3197 -83.7144 232° Southwest 134 154 5,900  Level Atlanta Center
08:10PM 34.3075 -83.7572 251° West 134 154 5,900  Level Atlanta Center
08:12PM 34.2742 -83.8378 243° Southwest 134 154 5,900  Level Atlanta Center
08:13PM 34.2594 -83.8806 247° West 134 154 5,900  Level Atlanta Center
08:15PM 34.2333 -83.9667 250° West 135 155 5,900  Level Atlanta TRACON
08:16PM 34.2167 -84.0167 248° West 139 160 5,900  Level Atlanta TRACON
08:17PM 34.2000 -84.0667 248° West 152 175 5,900 -180 Level Atlanta TRACON
08:18PM 34.1833 -84.1000 239° Southwest 148 170 5,600 -540 Descending Atlanta TRACON
08:19PM 34.1667 -84.1500 248° West 156 180 4,900 -720 Descending Atlanta TRACON
08:20PM 34.1500 -84.2000 248° West 152 175 4,300 -540 Descending Atlanta TRACON
08:21PM 34.1333 -84.2500 248° West 148 170 3,900 -240 Descending Atlanta TRACON
08:22PM 34.1167 -84.2833 239° Southwest 132 152 3,900  Level Atlanta TRACON
08:23PM 34.0833 -84.2833 180° South 129 148 3,900  Level Atlanta TRACON
08:24PM 34.0500 -84.3000 203° Southwest 128 147 3,900  Level Atlanta TRACON
08:25PM 34.0167 -84.3167 203° Southwest 136 157 3,900  Level Atlanta TRACON
08:26PM 34.0167 -84.3500 270° West 127 146 3,900  Level Atlanta TRACON
08:27PM 34.0167 -84.4000 270° West 129 148 3,900 -240 Level Atlanta TRACON
08:28PM 34.0167 -84.4333 270° West 110 127 3,500 -600 Descending Atlanta TRACON
08:29PM 34.0167 -84.4667 270° West 112 129 2,700 -720 Descending Atlanta TRACON
08:30PM 34.0167 -84.5167 270° West 107 123 2,100 -540 Descending Atlanta TRACON
08:31PM 34.0167 -84.5500 270° West 101 116 1,700 -420 Descending Atlanta TRACON